createdAt,value
2017-05-20T00:00:01.260Z,13.8
2017-05-20T00:05:01.846Z,13.8
2017-05-20T00:10:01.606Z,13.8
2017-05-20T00:15:01.520Z,13.8
2017-05-20T00:20:02.084Z,13.8
2017-05-20T00:25:01.793Z,13.8
2017-05-20T00:30:01.758Z,13.8
2017-05-20T00:35:01.435Z,13.8
2017-05-20T00:40:01.255Z,13.8
2017-05-20T00:45:01.302Z,13.2
2017-05-20T00:50:01.768Z,13.2
2017-05-20T00:55:01.507Z,13.2
2017-05-20T01:00:01.561Z,13.2
2017-05-20T01:05:01.929Z,13.2
2017-05-20T01:10:01.780Z,13.2
2017-05-20T01:15:02.071Z,13.2
2017-05-20T01:20:01.410Z,13.2
2017-05-20T01:25:01.205Z,13.2
2017-05-20T01:30:01.521Z,13.2
2017-05-20T01:35:02.069Z,13.2
2017-05-20T01:40:01.925Z,13.2
2017-05-20T01:45:01.847Z,13.2
2017-05-20T01:50:02.168Z,13.1
2017-05-20T01:55:01.926Z,13.1
2017-05-20T02:00:01.823Z,13.1
2017-05-20T02:05:01.470Z,13.1
2017-05-20T02:10:01.251Z,13.1
2017-05-20T02:15:01.564Z,13.1
2017-05-20T02:20:01.942Z,13.1
2017-05-20T02:25:01.241Z,13
2017-05-20T02:30:01.696Z,13
2017-05-20T02:35:02.109Z,13
2017-05-20T02:40:01.620Z,13
2017-05-20T02:45:01.940Z,13
2017-05-20T02:50:01.470Z,13
2017-05-20T02:55:01.426Z,13
2017-05-20T03:00:01.533Z,13
2017-05-20T03:05:01.183Z,13
2017-05-20T03:10:01.253Z,13
2017-05-20T03:15:01.469Z,13
2017-05-20T03:20:01.352Z,13
2017-05-20T03:25:01.602Z,13
2017-05-20T03:30:01.671Z,13
2017-05-20T03:35:01.785Z,13
2017-05-20T03:40:01.947Z,13
2017-05-20T03:45:01.347Z,13
2017-05-20T03:50:01.211Z,13
2017-05-20T03:55:01.290Z,13
2017-05-20T04:00:01.453Z,13
2017-05-20T04:05:02.023Z,13
2017-05-20T04:10:01.935Z,13
2017-05-20T04:15:01.514Z,13
2017-05-20T04:20:01.727Z,13
2017-05-20T04:25:01.625Z,13
2017-05-20T04:30:01.347Z,13.1
2017-05-20T04:35:01.709Z,13.1
2017-05-20T04:40:01.519Z,13.1
2017-05-20T04:45:01.688Z,13.1
2017-05-20T04:50:01.752Z,13.1
2017-05-20T04:55:01.400Z,13.1
2017-05-20T05:00:01.911Z,13.1
2017-05-20T05:05:01.549Z,13.1
2017-05-20T05:10:01.287Z,13
2017-05-20T05:15:01.519Z,13
2017-05-20T05:20:01.680Z,13
2017-05-20T05:25:01.987Z,13.1
2017-05-20T05:30:01.260Z,13.1
2017-05-20T05:35:02.141Z,13.2
2017-05-20T05:40:01.327Z,13.2
2017-05-20T05:45:02.082Z,13.2
2017-05-20T05:50:01.164Z,13.2
2017-05-20T05:55:01.758Z,13.2
2017-05-20T06:00:02.057Z,13.2
2017-05-20T06:05:02.091Z,13.2
2017-05-20T06:10:01.724Z,13.3
2017-05-20T06:15:02.058Z,13.3
2017-05-20T06:20:01.742Z,13.3
2017-05-20T06:25:01.900Z,13.6
2017-05-20T06:30:02.201Z,13.6
2017-05-20T06:35:02.119Z,13.7
2017-05-20T06:40:01.925Z,13.7
2017-05-20T06:45:01.615Z,13.7
2017-05-20T06:50:01.327Z,13.7
2017-05-20T06:55:01.939Z,13.9
2017-05-20T07:00:01.182Z,14
2017-05-20T07:05:02.027Z,14
2017-05-20T07:10:02.164Z,14.1
2017-05-20T07:15:01.492Z,14.2
2017-05-20T07:20:01.324Z,14.2
2017-05-20T07:25:01.718Z,14.2
2017-05-20T07:30:02.286Z,14.2
2017-05-20T07:35:01.422Z,14.4
2017-05-20T07:40:02.159Z,14.4
2017-05-20T07:45:02.165Z,14.4
2017-05-20T07:50:01.433Z,14.5
2017-05-20T07:55:01.909Z,14.6
2017-05-20T08:00:01.249Z,14.8
2017-05-20T08:05:02.010Z,14.9
2017-05-20T08:10:01.857Z,15
2017-05-20T08:15:02.091Z,15
2017-05-20T08:20:02.032Z,15
2017-05-20T08:25:01.417Z,15
2017-05-20T08:30:01.658Z,15
2017-05-20T08:35:01.875Z,15
2017-05-20T08:40:01.597Z,15
2017-05-20T08:45:01.550Z,15.2
2017-05-20T08:50:01.683Z,15.2
2017-05-20T08:55:01.303Z,15.5
2017-05-20T09:00:01.744Z,15.5
2017-05-20T09:05:02.067Z,15.5
2017-05-20T09:10:01.266Z,15.9
2017-05-20T09:15:01.936Z,15.9
2017-05-20T09:20:01.815Z,16.2
2017-05-20T09:25:01.983Z,16.5
2017-05-20T09:30:01.363Z,16.5
2017-05-20T09:35:01.934Z,16.4
2017-05-20T09:40:01.828Z,16.4
2017-05-20T09:45:01.493Z,16.5
2017-05-20T09:50:02.172Z,16.7
2017-05-20T09:55:02.053Z,16.7
2017-05-20T10:00:02.359Z,17.1
2017-05-20T10:05:02.076Z,17.1
2017-05-20T10:10:01.719Z,17.1
2017-05-20T10:15:02.091Z,17.6
2017-05-20T10:20:01.416Z,17.6
2017-05-20T10:25:01.542Z,17.5
2017-05-20T10:30:01.557Z,17.5
2017-05-20T10:35:01.943Z,17.4
2017-05-20T10:40:01.778Z,17.4
2017-05-20T10:45:01.374Z,17.4
2017-05-20T10:50:01.263Z,17.4
2017-05-20T10:55:02.156Z,17.6
2017-05-20T11:00:01.493Z,17.6
2017-05-20T11:05:02.054Z,17.6
2017-05-20T11:10:01.551Z,17.6
2017-05-20T11:15:02.745Z,17.6
2017-05-20T11:20:01.993Z,17.6
2017-05-20T11:25:01.597Z,17.3
2017-05-20T11:30:02.057Z,17.3
2017-05-20T11:35:01.501Z,17.4
2017-05-20T11:40:02.132Z,17.6
2017-05-20T11:45:01.915Z,17.6
2017-05-20T11:50:01.489Z,17.5
2017-05-20T11:55:01.950Z,17.4
2017-05-20T12:00:01.982Z,17.4
2017-05-20T12:05:01.862Z,17.6
2017-05-20T12:10:01.945Z,17.6
2017-05-20T12:15:02.328Z,17.6
2017-05-20T12:20:01.976Z,17.6
2017-05-20T12:25:01.654Z,17.7
2017-05-20T12:30:01.663Z,17.7
2017-05-20T12:35:01.920Z,17.7
2017-05-20T12:40:01.766Z,17.8
2017-05-20T12:45:02.043Z,17.7
2017-05-20T12:50:02.268Z,17.7
2017-05-20T12:55:01.220Z,17.7
2017-05-20T13:00:01.782Z,17.8
2017-05-20T13:05:01.821Z,17.8
2017-05-20T13:10:01.989Z,17.8
2017-05-20T13:15:02.598Z,18
2017-05-20T13:20:01.938Z,18
2017-05-20T13:25:01.491Z,18
2017-05-20T13:30:01.518Z,18.2
2017-05-20T13:35:01.828Z,18.2
2017-05-20T13:40:02.225Z,18.3
2017-05-20T13:45:01.505Z,18.3
2017-05-20T13:50:01.279Z,18.3
2017-05-20T13:55:02.313Z,18.2
2017-05-20T14:00:01.770Z,18.2
2017-05-20T14:05:01.965Z,18.2
2017-05-20T14:10:01.462Z,18.2
2017-05-20T14:15:01.543Z,18.2
2017-05-20T14:20:01.265Z,18.3
2017-05-20T14:25:01.361Z,18.4
2017-05-20T14:30:01.346Z,18.4
2017-05-20T14:35:01.565Z,18.4
2017-05-20T14:40:01.663Z,18.4
2017-05-20T14:45:01.840Z,18.3
2017-05-20T14:50:01.703Z,18.2
2017-05-20T14:55:02.048Z,18.2
2017-05-20T15:00:02.043Z,18.2
2017-05-20T15:05:01.395Z,18.2
2017-05-20T15:10:02.082Z,18.2
2017-05-20T15:15:01.773Z,18.2
2017-05-20T15:20:01.387Z,18.2
2017-05-20T15:25:01.919Z,18.2
2017-05-20T15:30:02.054Z,18.2
2017-05-20T15:35:01.495Z,18.2
2017-05-20T15:40:01.285Z,18.2
2017-05-20T15:45:02.144Z,18.2
2017-05-20T15:50:02.148Z,18.2
2017-05-20T15:55:02.273Z,18.2
2017-05-20T16:00:01.706Z,18.2
2017-05-20T16:05:02.309Z,18.2
2017-05-20T16:10:01.560Z,18.2
2017-05-20T16:15:02.373Z,18.1
2017-05-20T16:20:02.021Z,18.1
2017-05-20T16:25:01.550Z,18.1
2017-05-20T16:30:01.449Z,18.1
2017-05-20T16:35:01.691Z,18.1
2017-05-20T16:40:01.747Z,18
2017-05-20T16:45:01.895Z,18
2017-05-20T16:50:01.510Z,18
2017-05-20T16:55:01.701Z,18
2017-05-20T17:00:01.555Z,18
2017-05-20T17:05:01.344Z,17.9
2017-05-20T17:10:01.448Z,17.8
2017-05-20T17:15:02.168Z,17.8
2017-05-20T17:20:01.863Z,17.8
2017-05-20T17:25:02.222Z,17.8
2017-05-20T17:30:01.232Z,17.8
2017-05-20T17:35:01.455Z,17.6
2017-05-20T17:40:01.804Z,17.6
2017-05-20T17:45:01.916Z,17.6
2017-05-20T17:50:01.927Z,17.5
2017-05-20T17:55:01.826Z,17.5
2017-05-20T18:00:01.329Z,17.3
2017-05-20T18:05:02.066Z,17.2
2017-05-20T18:10:02.033Z,17.1
2017-05-20T18:15:02.268Z,17.1
2017-05-20T18:20:02.006Z,17.1
2017-05-20T18:25:01.946Z,16.8
2017-05-20T18:30:01.827Z,16.8
2017-05-20T18:35:01.291Z,16.6
2017-05-20T18:40:01.414Z,16.6
2017-05-20T18:45:02.085Z,16.4
2017-05-20T18:50:01.948Z,16.4
2017-05-20T18:55:02.133Z,16.2
2017-05-20T19:00:01.840Z,16.2
2017-05-20T19:05:01.890Z,16.2
2017-05-20T19:10:01.359Z,15.8
2017-05-20T19:15:01.589Z,15.6
2017-05-20T19:20:02.127Z,15.4
2017-05-20T19:25:01.808Z,15.3
2017-05-20T19:30:01.217Z,15.2
2017-05-20T19:35:01.371Z,15
2017-05-20T19:40:01.997Z,15
2017-05-20T19:45:01.497Z,15
2017-05-20T19:50:01.637Z,15
2017-05-20T19:55:01.356Z,15
2017-05-20T20:00:01.377Z,15
2017-05-20T20:05:01.882Z,14.6
2017-05-20T20:10:01.846Z,14.6
2017-05-20T20:15:01.446Z,14.6
2017-05-20T20:20:02.107Z,14.2
2017-05-20T20:25:01.397Z,14.2
2017-05-20T20:30:02.170Z,14.2
2017-05-20T20:35:02.017Z,13.9
2017-05-20T20:40:01.636Z,13.9
2017-05-20T20:45:01.546Z,13.9
2017-05-20T20:50:01.667Z,13.6
2017-05-20T20:55:01.613Z,13.4
2017-05-20T21:00:01.818Z,13.4
2017-05-20T21:05:01.194Z,13.4
2017-05-20T21:10:01.969Z,13.3
2017-05-20T21:15:01.606Z,13.2
2017-05-20T21:20:02.319Z,13.2
2017-05-20T21:25:01.496Z,13.1
2017-05-20T21:30:01.451Z,13.1
2017-05-20T21:35:02.075Z,13.1
2017-05-20T21:40:01.531Z,13.1
2017-05-20T21:45:01.382Z,13.1
2017-05-20T21:50:01.266Z,12.7
2017-05-20T21:55:01.797Z,12.6
2017-05-20T22:00:01.712Z,12.5
2017-05-20T22:05:02.146Z,12.5
2017-05-20T22:10:01.381Z,12.4
2017-05-20T22:15:02.437Z,12.3
2017-05-20T22:20:02.190Z,12.3
2017-05-20T22:25:01.313Z,12.3
2017-05-20T22:30:02.195Z,12.3
2017-05-20T22:35:01.779Z,11.9
2017-05-20T22:40:01.635Z,11.9
2017-05-20T22:45:01.914Z,11.8
2017-05-20T22:50:02.232Z,11.8
2017-05-20T22:55:02.245Z,11.7
2017-05-20T23:00:01.908Z,11.7
2017-05-20T23:05:02.042Z,11.7
2017-05-20T23:10:01.394Z,11.7
2017-05-20T23:15:01.435Z,11.7
2017-05-20T23:20:02.129Z,11.6
2017-05-20T23:25:01.727Z,11.5
2017-05-20T23:30:01.761Z,11.4
2017-05-20T23:35:02.163Z,11.4
2017-05-20T23:40:01.790Z,11.3
2017-05-20T23:45:02.102Z,11.3
2017-05-20T23:50:01.235Z,11.2
2017-05-20T23:55:02.065Z,11.2
